createdAt,value
2022-09-29T00:00:56.138Z,10.48
2022-09-29T00:03:23.990Z,10.00
2022-09-29T00:05:54.026Z,11.13
2022-09-29T00:08:24.561Z,10.85
2022-09-29T00:10:52.134Z,11.63
2022-09-29T00:13:19.744Z,11.02
2022-09-29T00:15:59.218Z,11.95
2022-09-29T00:18:27.642Z,12.32
2022-09-29T00:21:06.805Z,11.68
2022-09-29T00:23:35.754Z,11.25
2022-09-29T00:26:09.746Z,13.30
2022-09-29T00:28:39.642Z,12.98
2022-09-29T00:31:10.791Z,12.65
2022-09-29T00:33:39.478Z,10.60
2022-09-29T00:36:15.920Z,13.25
2022-09-29T00:38:44.898Z,11.02
2022-09-29T00:41:27.062Z,12.02
2022-09-29T00:44:12.480Z,13.35
2022-09-29T00:46:55.390Z,10.50
2022-09-29T00:49:37.912Z,13.40
2022-09-29T00:52:23.373Z,11.40
2022-09-29T00:54:55.930Z,11.10
2022-09-29T00:57:29.229Z,14.18
2022-09-29T01:00:12.796Z,11.07
2022-09-29T01:02:46.469Z,11.50
2022-09-29T01:05:21.047Z,10.20
2022-09-29T01:07:48.793Z,12.32
2022-09-29T01:10:17.595Z,10.68
2022-09-29T01:12:48.294Z,11.05
2022-09-29T01:15:19.502Z,10.13
2022-09-29T01:17:47.754Z,11.77
2022-09-29T01:20:22.169Z,10.70
2022-09-29T01:23:17.385Z,11.57
2022-09-29T01:26:03.780Z,12.82
2022-09-29T01:28:57.963Z,10.48
2022-09-29T01:31:59.753Z,11.25
2022-09-29T01:34:36.519Z,12.43
2022-09-29T01:37:41.327Z,10.52
2022-09-29T01:40:16.214Z,12.23
2022-09-29T01:43:00.763Z,10.73
2022-09-29T01:45:36.031Z,12.98
2022-09-29T01:48:09.149Z,11.63
2022-09-29T01:50:42.164Z,11.70
2022-09-29T01:53:15.653Z,10.85
2022-09-29T01:55:53.770Z,14.77
2022-09-29T01:58:32.573Z,14.77
2022-09-29T02:01:06.923Z,13.02
2022-09-29T02:03:47.748Z,13.77
2022-09-29T02:06:24.578Z,13.02
2022-09-29T02:08:57.142Z,11.25
2022-09-29T02:11:26.773Z,13.82
2022-09-29T02:14:01.881Z,12.55
2022-09-29T02:16:31.679Z,11.80
2022-09-29T02:19:03.396Z,14.43
2022-09-29T02:23:58.337Z,14.93
2022-09-29T02:26:31.874Z,11.60
2022-09-29T02:29:01.948Z,11.85
2022-09-29T02:31:31.041Z,12.20
2022-09-29T02:33:59.125Z,10.43
2022-09-29T02:37:00.171Z,12.52
2022-09-29T02:39:44.361Z,12.53
2022-09-29T02:42:19.769Z,10.52
2022-09-29T02:44:50.305Z,12.15
2022-09-29T02:47:27.165Z,11.13
2022-09-29T02:50:29.861Z,13.30
2022-09-29T02:53:09.258Z,8.80
2022-09-29T02:55:44.608Z,9.15
2022-09-29T02:58:20.942Z,12.68
2022-09-29T03:00:49.050Z,10.10
2022-09-29T03:03:16.843Z,10.45
2022-09-29T03:05:44.440Z,10.32
2022-09-29T03:08:11.893Z,11.07
2022-09-29T03:10:39.436Z,12.38
2022-09-29T03:13:06.880Z,9.73
2022-09-29T03:15:34.403Z,9.20
2022-09-29T03:18:06.033Z,7.88
2022-09-29T03:20:35.775Z,8.55
2022-09-29T03:23:03.462Z,13.73
2022-09-29T03:25:31.070Z,8.80
2022-09-29T03:27:59.734Z,13.77
2022-09-29T03:30:27.505Z,8.48
2022-09-29T03:32:55.124Z,8.68
2022-09-29T03:35:22.613Z,8.68
2022-09-29T03:37:50.086Z,9.57
2022-09-29T03:40:17.847Z,9.05
2022-09-29T03:42:47.262Z,11.68
2022-09-29T03:45:14.921Z,13.25
2022-09-29T03:47:42.431Z,9.48
2022-09-29T03:50:10.613Z,8.68
2022-09-29T03:52:38.125Z,9.88
2022-09-29T03:55:06.157Z,10.80
2022-09-29T03:57:33.640Z,6.55
2022-09-29T04:00:01.436Z,8.60
2022-09-29T04:02:29.082Z,7.07
2022-09-29T04:04:56.641Z,7.70
2022-09-29T04:07:24.265Z,10.95
2022-09-29T04:09:51.727Z,8.13
2022-09-29T04:12:19.308Z,9.05
2022-09-29T04:14:46.754Z,7.88
2022-09-29T04:17:14.293Z,9.27
2022-09-29T04:19:41.764Z,7.07
2022-09-29T04:22:09.770Z,6.32
2022-09-29T04:24:37.270Z,7.90
2022-09-29T04:27:04.805Z,6.43
2022-09-29T04:29:32.311Z,5.55
2022-09-29T04:31:59.952Z,6.38
2022-09-29T04:34:27.696Z,7.13
2022-09-29T04:36:55.168Z,7.38
2022-09-29T04:39:22.766Z,5.78
2022-09-29T04:41:50.331Z,6.78
2022-09-29T04:44:20.243Z,7.22
2022-09-29T04:46:52.681Z,7.47
2022-09-29T04:49:20.503Z,14.85
2022-09-29T04:51:48.394Z,10.48
2022-09-29T04:54:16.077Z,12.07
2022-09-29T04:56:43.583Z,8.30
2022-09-29T04:59:11.125Z,12.10
2022-09-29T05:01:38.607Z,10.63
2022-09-29T05:04:07.649Z,9.80
2022-09-29T05:06:39.340Z,11.38
2022-09-29T05:09:07.577Z,7.65
2022-09-29T05:11:35.680Z,7.20
2022-09-29T05:14:03.734Z,8.43
2022-09-29T05:16:31.869Z,10.13
2022-09-29T05:18:59.758Z,9.77
2022-09-29T05:21:28.868Z,9.27
2022-09-29T05:23:57.855Z,7.88
2022-09-29T05:26:25.934Z,9.32
2022-09-29T05:28:53.446Z,13.18
2022-09-29T05:31:20.997Z,7.53
2022-09-29T05:33:48.612Z,9.75
2022-09-29T05:36:16.212Z,13.55
2022-09-29T05:38:43.758Z,8.95
2022-09-29T05:41:12.780Z,9.55
2022-09-29T05:43:40.985Z,9.45
2022-09-29T05:46:11.009Z,13.25
2022-09-29T05:48:38.876Z,14.70
2022-09-29T05:51:22.449Z,10.32
2022-09-29T05:53:50.879Z,9.15
2022-09-29T05:56:21.384Z,9.15
2022-09-29T05:58:48.961Z,8.82
2022-09-29T06:01:20.718Z,8.73
2022-09-29T06:03:48.443Z,10.88
2022-09-29T06:06:19.674Z,10.63
2022-09-29T06:08:48.254Z,7.88
2022-09-29T06:11:16.929Z,10.70
2022-09-29T06:13:49.686Z,9.88
2022-09-29T06:16:20.081Z,10.73
2022-09-29T06:18:48.694Z,10.80
2022-09-29T06:21:18.818Z,11.35
2022-09-29T06:23:46.957Z,11.77
2022-09-29T06:26:20.162Z,15.85
2022-09-29T06:28:50.655Z,10.60
2022-09-29T06:31:21.288Z,8.38
2022-09-29T06:33:49.173Z,13.03
2022-09-29T06:36:41.867Z,10.30
2022-09-29T06:39:13.266Z,11.70
2022-09-29T06:41:41.927Z,10.57
2022-09-29T06:44:09.489Z,9.20
2022-09-29T06:46:37.162Z,7.93
2022-09-29T06:49:04.821Z,9.02
2022-09-29T06:51:43.684Z,12.43
2022-09-29T06:54:15.171Z,11.65
2022-09-29T06:56:43.205Z,10.55
2022-09-29T06:59:10.777Z,9.88
2022-09-29T07:01:38.439Z,9.32
2022-09-29T07:04:06.045Z,11.65
2022-09-29T07:06:33.637Z,9.20
2022-09-29T07:09:01.430Z,10.57
2022-09-29T07:11:29.139Z,12.35
2022-09-29T07:13:56.702Z,17.98
2022-09-29T07:16:24.772Z,17.15
2022-09-29T07:18:52.976Z,10.63
2022-09-29T07:21:22.231Z,10.82
2022-09-29T07:23:50.098Z,6.93
2022-09-29T07:26:18.101Z,7.85
2022-09-29T07:28:47.146Z,11.25
2022-09-29T07:31:20.220Z,8.60
2022-09-29T07:33:49.989Z,9.55
2022-09-29T07:36:19.933Z,9.90
2022-09-29T07:38:52.119Z,6.88
2022-09-29T07:41:21.918Z,11.50
2022-09-29T07:43:49.595Z,10.13
2022-09-29T07:46:17.354Z,15.18
2022-09-29T07:48:45.001Z,11.18
2022-09-29T07:51:18.278Z,11.50
2022-09-29T07:53:46.883Z,12.10
2022-09-29T07:56:20.124Z,7.60
2022-09-29T07:58:49.932Z,8.55
2022-09-29T08:01:19.658Z,11.90
2022-09-29T08:03:55.622Z,7.07
2022-09-29T08:06:24.556Z,7.07
2022-09-29T08:09:02.610Z,6.47
2022-09-29T08:11:34.330Z,6.70
2022-09-29T08:14:01.881Z,8.18
2022-09-29T08:16:30.393Z,5.55
2022-09-29T08:18:58.861Z,12.13
2022-09-29T08:21:27.020Z,6.65
2022-09-29T08:23:54.493Z,8.23
2022-09-29T08:26:36.194Z,6.03
2022-09-29T08:29:08.779Z,6.22
2022-09-29T08:31:40.182Z,7.15
2022-09-29T08:34:07.939Z,7.78
2022-09-29T08:36:36.720Z,5.38
2022-09-29T08:39:04.474Z,7.13
2022-09-29T08:41:54.775Z,8.15
2022-09-29T08:44:37.769Z,6.78
2022-09-29T08:47:20.598Z,7.70
2022-09-29T08:49:55.376Z,7.00
2022-09-29T08:52:38.615Z,7.50
2022-09-29T08:55:21.591Z,6.60
2022-09-29T08:57:58.912Z,7.50
2022-09-29T09:01:04.249Z,7.25
2022-09-29T09:04:12.677Z,6.20
2022-09-29T09:07:21.450Z,8.38
2022-09-29T09:10:03.589Z,10.15
2022-09-29T09:12:53.435Z,9.77
2022-09-29T09:15:39.299Z,4.13
2022-09-29T09:18:25.168Z,4.95
2022-09-29T09:21:42.614Z,4.75
2022-09-29T09:24:24.898Z,3.80
2022-09-29T09:26:52.877Z,4.70
2022-09-29T09:29:37.681Z,5.03
2022-09-29T09:32:17.345Z,9.85
2022-09-29T09:34:51.954Z,5.20
2022-09-29T09:37:22.075Z,4.25
2022-09-29T09:39:56.702Z,6.03
2022-09-29T09:42:35.565Z,5.50
2022-09-29T09:45:14.691Z,4.05
2022-09-29T09:47:59.830Z,4.85
2022-09-29T09:50:28.454Z,3.63
2022-09-29T09:53:04.461Z,3.33
2022-09-29T09:55:36.924Z,4.25
2022-09-29T09:58:16.482Z,5.53
2022-09-29T10:00:53.292Z,3.92
2022-09-29T10:03:21.092Z,4.07
2022-09-29T10:05:49.683Z,2.92
2022-09-29T10:08:29.657Z,6.65
2022-09-29T10:10:59.692Z,4.68
2022-09-29T10:13:29.663Z,5.15
2022-09-29T10:16:08.324Z,4.22
2022-09-29T10:18:52.705Z,2.35
2022-09-29T10:21:32.525Z,3.53
2022-09-29T10:24:01.352Z,3.05
2022-09-29T10:26:40.455Z,4.47
2022-09-29T10:29:23.551Z,2.72
2022-09-29T10:32:08.114Z,1.85
2022-09-29T10:34:42.933Z,3.00
2022-09-29T10:37:24.216Z,2.67
2022-09-29T10:42:36.122Z,1.25
2022-09-29T10:45:26.656Z,5.95
2022-09-29T10:48:04.294Z,2.77
2022-09-29T10:50:53.649Z,1.95
2022-09-29T10:53:38.742Z,2.80
2022-09-29T10:56:16.946Z,6.50
2022-09-29T10:59:00.339Z,3.70
2022-09-29T11:01:35.452Z,4.57
2022-09-29T11:04:33.619Z,6.20
2022-09-29T11:07:10.495Z,2.30
2022-09-29T11:09:44.501Z,2.42
2022-09-29T11:12:41.118Z,3.78
2022-09-29T11:15:25.185Z,2.15
2022-09-29T11:17:53.238Z,2.95
2022-09-29T11:20:25.354Z,4.60
2022-09-29T11:23:01.530Z,1.80
2022-09-29T11:25:57.787Z,1.30
2022-09-29T11:28:47.158Z,2.67
2022-09-29T11:31:39.841Z,2.35
2022-09-29T11:34:28.973Z,3.33
2022-09-29T11:37:07.131Z,1.73
2022-09-29T11:40:02.102Z,8.95
2022-09-29T11:42:32.696Z,2.97
2022-09-29T11:45:07.314Z,3.95
2022-09-29T11:47:56.774Z,2.80
2022-09-29T11:50:39.089Z,1.52
2022-09-29T11:53:12.132Z,3.65
2022-09-29T11:55:58.465Z,4.80
2022-09-29T11:58:47.030Z,3.95
2022-09-29T12:01:21.357Z,8.35
2022-09-29T12:04:26.388Z,8.73
2022-09-29T12:07:03.963Z,14.70
2022-09-29T12:09:50.074Z,4.93
2022-09-29T12:12:42.425Z,5.07
2022-09-29T12:15:13.283Z,5.78
2022-09-29T12:17:45.671Z,4.20
2022-09-29T12:20:29.394Z,6.00
2022-09-29T12:23:05.786Z,4.75
2022-09-29T12:25:41.085Z,3.05
2022-09-29T12:28:19.960Z,6.78
2022-09-29T12:30:54.848Z,3.47
2022-09-29T12:34:00.111Z,4.78
2022-09-29T12:36:44.390Z,5.20
2022-09-29T12:39:41.392Z,11.30
2022-09-29T12:42:39.712Z,5.13
2022-09-29T12:45:16.078Z,5.65
2022-09-29T12:48:05.921Z,4.40
2022-09-29T12:50:52.483Z,4.60
2022-09-29T12:53:34.825Z,3.83
2022-09-29T12:56:12.933Z,3.47
2022-09-29T12:59:09.541Z,4.95
2022-09-29T13:01:38.545Z,5.45
2022-09-29T13:04:27.657Z,3.33
2022-09-29T13:07:25.964Z,3.47
2022-09-29T13:10:15.487Z,4.55
2022-09-29T13:12:46.077Z,5.15
2022-09-29T13:15:19.299Z,4.38
2022-09-29T13:18:02.254Z,6.97
2022-09-29T13:21:06.813Z,9.27
2022-09-29T13:23:43.090Z,6.38
2022-09-29T13:26:38.419Z,9.70
2022-09-29T13:29:23.873Z,5.80
2022-09-29T13:31:53.066Z,7.30
2022-09-29T13:34:46.751Z,7.25
2022-09-29T13:37:16.691Z,8.38
2022-09-29T13:40:01.320Z,7.40
2022-09-29T13:42:37.464Z,10.05
2022-09-29T13:45:21.276Z,9.13
2022-09-29T13:47:54.440Z,8.85
2022-09-29T13:50:45.271Z,6.07
2022-09-29T13:53:22.054Z,8.87
2022-09-29T13:55:55.451Z,7.65
2022-09-29T13:58:32.480Z,8.70
2022-09-29T14:01:03.237Z,11.98
2022-09-29T14:03:47.629Z,7.80
2022-09-29T14:06:39.547Z,5.38
2022-09-29T14:09:12.430Z,4.88
2022-09-29T14:11:52.803Z,6.40
2022-09-29T14:14:32.282Z,5.68
2022-09-29T14:17:14.861Z,8.73
2022-09-29T14:19:56.486Z,5.63
2022-09-29T14:25:12.308Z,6.78
2022-09-29T14:27:58.774Z,7.45
2022-09-29T14:30:32.622Z,6.60
2022-09-29T14:33:11.067Z,5.15
2022-09-29T14:36:01.787Z,7.00
2022-09-29T14:38:50.796Z,4.13
2022-09-29T14:41:32.209Z,5.13
2022-09-29T14:44:06.782Z,8.52
2022-09-29T14:47:21.969Z,5.22
2022-09-29T14:50:23.881Z,5.00
2022-09-29T14:53:13.413Z,3.50
2022-09-29T14:55:56.059Z,3.47
2022-09-29T14:58:29.713Z,3.85
2022-09-29T15:01:15.452Z,8.07
2022-09-29T15:03:47.363Z,5.53
2022-09-29T15:06:20.644Z,3.53
2022-09-29T15:08:57.707Z,4.00
2022-09-29T15:11:38.249Z,4.63
2022-09-29T15:14:26.039Z,3.65
2022-09-29T15:17:18.729Z,4.55
2022-09-29T15:20:08.158Z,7.18
2022-09-29T15:22:45.616Z,2.97
2022-09-29T15:25:29.855Z,2.75
2022-09-29T15:28:11.862Z,4.30
2022-09-29T15:30:39.972Z,5.85
2022-09-29T15:33:27.890Z,6.72
2022-09-29T15:36:02.863Z,6.20
2022-09-29T15:38:34.572Z,7.75
2022-09-29T15:41:13.571Z,7.55
2022-09-29T15:43:44.990Z,9.88
2022-09-29T15:46:25.736Z,10.57
2022-09-29T15:49:14.742Z,6.72
2022-09-29T15:51:45.362Z,5.45
2022-09-29T15:54:16.098Z,5.90
2022-09-29T15:57:05.138Z,5.38
2022-09-29T15:59:51.604Z,8.32
2022-09-29T16:02:30.553Z,6.97
2022-09-29T16:05:02.775Z,4.43
2022-09-29T16:07:36.255Z,5.20
2022-09-29T16:10:23.421Z,6.90
2022-09-29T16:12:57.874Z,9.00
2022-09-29T16:15:55.003Z,8.10
2022-09-29T16:18:26.393Z,7.38
2022-09-29T16:20:59.770Z,9.35
2022-09-29T16:23:36.952Z,7.55
2022-09-29T16:26:07.266Z,7.25
2022-09-29T16:28:41.026Z,7.35
2022-09-29T16:31:19.884Z,7.40
2022-09-29T16:33:54.879Z,5.38
2022-09-29T16:36:36.141Z,7.30
2022-09-29T16:41:41.148Z,6.68
2022-09-29T16:44:17.584Z,7.82
2022-09-29T16:46:54.182Z,10.25
2022-09-29T16:49:28.955Z,8.48
2022-09-29T16:51:59.901Z,7.43
2022-09-29T16:54:31.169Z,7.50
2022-09-29T16:59:46.453Z,7.38
2022-09-29T17:02:14.333Z,9.65
2022-09-29T17:04:42.136Z,6.15
2022-09-29T17:07:15.816Z,7.13
2022-09-29T17:09:56.340Z,8.05
2022-09-29T17:12:26.730Z,5.90
2022-09-29T17:14:54.396Z,8.68
2022-09-29T17:17:27.264Z,8.02
2022-09-29T17:19:56.561Z,9.45
2022-09-29T17:22:32.181Z,12.13
2022-09-29T17:25:00.437Z,7.80
2022-09-29T17:27:47.811Z,10.55
2022-09-29T17:30:22.904Z,6.07
2022-09-29T17:32:53.886Z,8.48
2022-09-29T17:35:25.378Z,9.70
2022-09-29T17:40:50.059Z,6.95
2022-09-29T17:43:18.403Z,7.72
2022-09-29T17:45:46.670Z,11.88
2022-09-29T17:48:15.317Z,12.68
2022-09-29T17:50:50.881Z,9.77
2022-09-29T17:53:19.185Z,12.52
2022-09-29T17:55:51.956Z,11.05
2022-09-29T17:58:20.209Z,11.55
2022-09-29T18:00:50.272Z,14.45
2022-09-29T18:03:19.682Z,9.55
2022-09-29T18:05:56.389Z,9.77
2022-09-29T18:08:26.808Z,9.63
2022-09-29T18:10:59.452Z,12.27
2022-09-29T18:13:28.774Z,12.50
2022-09-29T18:15:58.063Z,8.88
2022-09-29T18:18:27.154Z,9.90
2022-09-29T18:20:54.836Z,9.85
2022-09-29T18:23:25.659Z,14.65
2022-09-29T18:25:53.715Z,9.27
2022-09-29T18:28:21.667Z,10.15
2022-09-29T18:30:53.968Z,8.75
2022-09-29T18:33:21.722Z,9.27
2022-09-29T18:35:54.137Z,10.02
2022-09-29T18:38:21.874Z,13.68
2022-09-29T18:40:55.466Z,10.73
2022-09-29T18:43:26.002Z,13.07
2022-09-29T18:45:55.672Z,12.43
2022-09-29T18:48:23.649Z,10.82
2022-09-29T18:50:52.706Z,13.57
2022-09-29T18:53:21.843Z,13.82
2022-09-29T18:55:51.468Z,14.70
2022-09-29T18:58:20.838Z,16.45
2022-09-29T19:00:51.211Z,34.20
2022-09-29T19:03:19.417Z,22.95
2022-09-29T19:05:47.975Z,9.48
2022-09-29T19:08:17.842Z,12.93
2022-09-29T19:10:51.857Z,13.82
2022-09-29T19:13:19.997Z,13.68
2022-09-29T19:15:48.208Z,11.90
2022-09-29T19:18:23.775Z,14.23
2022-09-29T19:20:54.487Z,14.70
2022-09-29T19:23:23.903Z,23.95
2022-09-29T19:25:53.757Z,17.52
2022-09-29T19:28:22.831Z,19.92
2022-09-29T19:30:50.722Z,16.23
2022-09-29T19:33:21.013Z,15.25
2022-09-29T19:35:54.574Z,13.48
2022-09-29T19:38:24.918Z,15.20
2022-09-29T19:40:52.961Z,13.85
2022-09-29T19:43:22.224Z,12.95
2022-09-29T19:45:50.501Z,14.90
2022-09-29T19:48:21.572Z,14.70
2022-09-29T19:51:15.299Z,17.65
2022-09-29T19:53:45.837Z,19.67
2022-09-29T19:56:17.183Z,18.92
2022-09-29T19:58:45.153Z,24.42
2022-09-29T20:01:12.991Z,21.90
2022-09-29T20:03:43.422Z,19.38
2022-09-29T20:06:11.145Z,18.70
2022-09-29T20:08:39.208Z,20.13
2022-09-29T20:11:10.943Z,19.35
2022-09-29T20:16:07.177Z,23.08
2022-09-29T20:18:36.856Z,17.75
2022-09-29T20:21:09.176Z,17.35
2022-09-29T20:23:39.781Z,17.02
2022-09-29T20:26:11.156Z,17.02
2022-09-29T20:28:38.871Z,19.95
2022-09-29T20:31:07.736Z,23.92
2022-09-29T20:33:36.943Z,17.25
2022-09-29T20:36:05.463Z,17.05
2022-09-29T20:38:39.432Z,18.35
2022-09-29T20:41:08.427Z,17.05
2022-09-29T20:43:37.037Z,20.75
2022-09-29T20:46:07.172Z,19.40
2022-09-29T20:48:36.594Z,16.23
2022-09-29T20:51:05.453Z,14.98
2022-09-29T20:53:36.839Z,16.55
2022-09-29T20:56:11.417Z,22.50
2022-09-29T20:58:41.658Z,17.27
2022-09-29T21:01:18.132Z,18.83
2022-09-29T21:03:53.070Z,13.82
2022-09-29T21:06:35.205Z,18.90
2022-09-29T21:09:05.760Z,15.93
2022-09-29T21:11:38.313Z,23.08
2022-09-29T21:14:11.025Z,16.67
2022-09-29T21:16:42.905Z,19.08
2022-09-29T21:19:10.986Z,18.35
2022-09-29T21:21:41.073Z,18.70
2022-09-29T21:24:10.130Z,15.48
2022-09-29T21:26:39.524Z,13.20
2022-09-29T21:29:13.813Z,14.63
2022-09-29T21:31:41.497Z,18.23
2022-09-29T21:34:11.106Z,16.08
2022-09-29T21:36:38.818Z,19.27
2022-09-29T21:39:08.957Z,17.98
2022-09-29T21:41:39.171Z,14.40
2022-09-29T21:44:15.630Z,19.45
2022-09-29T21:46:44.469Z,21.70
2022-09-29T21:49:13.547Z,21.85
2022-09-29T21:51:44.818Z,22.23
2022-09-29T21:54:17.654Z,20.23
2022-09-29T21:56:46.782Z,17.48
2022-09-29T21:59:17.350Z,17.08
2022-09-29T22:01:45.947Z,17.67
2022-09-29T22:04:14.546Z,14.15
2022-09-29T22:06:45.000Z,18.13
2022-09-29T22:09:19.341Z,16.75
2022-09-29T22:11:50.034Z,18.25
2022-09-29T22:14:18.583Z,15.00
2022-09-29T22:16:46.277Z,18.13
2022-09-29T22:19:29.505Z,18.58
2022-09-29T22:21:57.174Z,17.88
2022-09-29T22:24:26.851Z,16.17
2022-09-29T22:26:54.968Z,16.67
2022-09-29T22:29:22.816Z,20.38
2022-09-29T22:31:50.607Z,15.68
2022-09-29T22:34:18.466Z,15.25
2022-09-29T22:36:46.017Z,17.23
2022-09-29T22:39:13.540Z,13.38
2022-09-29T22:41:41.189Z,14.65
2022-09-29T22:44:08.793Z,14.77
2022-09-29T22:46:36.559Z,23.48
2022-09-29T22:49:04.692Z,15.68
2022-09-29T22:51:33.220Z,33.92
2022-09-29T22:54:00.716Z,13.23
2022-09-29T22:56:29.191Z,14.43
2022-09-29T22:59:02.047Z,28.92
2022-09-29T23:01:29.886Z,70.70
2022-09-29T23:03:57.616Z,11.18
2022-09-29T23:06:25.353Z,12.80
2022-09-29T23:08:55.434Z,12.52
2022-09-29T23:11:23.614Z,11.05
2022-09-29T23:13:52.901Z,13.25
2022-09-29T23:16:20.706Z,12.60
2022-09-29T23:18:53.987Z,14.00
2022-09-29T23:21:22.931Z,11.25
2022-09-29T23:23:55.994Z,10.40
2022-09-29T23:26:25.458Z,9.77
2022-09-29T23:28:57.073Z,15.55
2022-09-29T23:33:57.685Z,10.73
2022-09-29T23:36:27.463Z,9.90
2022-09-29T23:39:10.095Z,13.88
2022-09-29T23:41:40.416Z,11.45
2022-09-29T23:44:09.306Z,13.85
2022-09-29T23:46:38.528Z,11.38
2022-09-29T23:49:11.361Z,15.63
2022-09-29T23:51:43.824Z,13.80
2022-09-29T23:54:13.229Z,25.25
2022-09-29T23:56:40.874Z,11.38
2022-09-29T23:59:08.729Z,14.15
